sensor_id;sensor_type;location;lat;lon;timestamp;P1;durP1;ratioP1;P2;durP2;ratioP2
70228;SDS011;57617;51.988;5.854;2023-05-16T00:00:32;13.63;;;2.60;;
70228;SDS011;57617;51.988;5.854;2023-05-16T00:02:59;13.60;;;2.20;;
70228;SDS011;57617;51.988;5.854;2023-05-16T00:05:26;12.30;;;2.28;;
70228;SDS011;57617;51.988;5.854;2023-05-16T00:07:52;9.63;;;2.15;;
70228;SDS011;57617;51.988;5.854;2023-05-16T00:10:17;14.55;;;1.98;;
70228;SDS011;57617;51.988;5.854;2023-05-16T00:12:42;14.48;;;2.10;;
70228;SDS011;57617;51.988;5.854;2023-05-16T00:15:09;11.55;;;2.08;;
70228;SDS011;57617;51.988;5.854;2023-05-16T00:17:38;11.55;;;2.10;;
70228;SDS011;57617;51.988;5.854;2023-05-16T00:20:04;11.35;;;2.00;;
70228;SDS011;57617;51.988;5.854;2023-05-16T00:22:35;13.98;;;2.00;;
70228;SDS011;57617;51.988;5.854;2023-05-16T00:25:01;10.88;;;2.40;;
70228;SDS011;57617;51.988;5.854;2023-05-16T00:27:26;13.65;;;2.40;;
70228;SDS011;57617;51.988;5.854;2023-05-16T00:29:51;11.90;;;1.98;;
70228;SDS011;57617;51.988;5.854;2023-05-16T00:32:17;8.73;;;1.67;;
70228;SDS011;57617;51.988;5.854;2023-05-16T00:34:42;11.70;;;2.10;;
70228;SDS011;57617;51.988;5.854;2023-05-16T00:37:07;14.95;;;2.10;;
70228;SDS011;57617;51.988;5.854;2023-05-16T00:39:33;13.73;;;2.00;;
70228;SDS011;57617;51.988;5.854;2023-05-16T00:41:58;12.20;;;2.00;;
70228;SDS011;57617;51.988;5.854;2023-05-16T00:44:24;13.50;;;2.03;;
70228;SDS011;57617;51.988;5.854;2023-05-16T00:46:49;14.38;;;1.92;;
70228;SDS011;57617;51.988;5.854;2023-05-16T00:49:14;12.45;;;1.77;;
70228;SDS011;57617;51.988;5.854;2023-05-16T00:51:39;10.27;;;1.80;;
70228;SDS011;57617;51.988;5.854;2023-05-16T00:54:05;12.27;;;1.63;;
70228;SDS011;57617;51.988;5.854;2023-05-16T00:56:31;15.60;;;1.90;;
70228;SDS011;57617;51.988;5.854;2023-05-16T00:58:57;10.05;;;1.85;;
70228;SDS011;57617;51.988;5.854;2023-05-16T01:01:24;11.07;;;1.60;;
70228;SDS011;57617;51.988;5.854;2023-05-16T01:03:51;12.05;;;1.60;;
70228;SDS011;57617;51.988;5.854;2023-05-16T01:06:17;5.35;;;1.40;;
70228;SDS011;57617;51.988;5.854;2023-05-16T01:08:43;10.77;;;1.75;;
70228;SDS011;57617;51.988;5.854;2023-05-16T01:13:43;18.40;;;2.08;;
70228;SDS011;57617;51.988;5.854;2023-05-16T01:16:21;9.40;;;1.63;;
70228;SDS011;57617;51.988;5.854;2023-05-16T01:18:53;15.68;;;2.22;;
70228;SDS011;57617;51.988;5.854;2023-05-16T01:24:32;12.43;;;1.58;;
70228;SDS011;57617;51.988;5.854;2023-05-16T01:26:59;13.02;;;1.75;;
70228;SDS011;57617;51.988;5.854;2023-05-16T01:29:24;7.13;;;1.50;;
70228;SDS011;57617;51.988;5.854;2023-05-16T01:31:50;10.10;;;1.45;;
70228;SDS011;57617;51.988;5.854;2023-05-16T01:34:15;10.48;;;1.83;;
70228;SDS011;57617;51.988;5.854;2023-05-16T01:36:47;18.42;;;1.80;;
70228;SDS011;57617;51.988;5.854;2023-05-16T01:39:19;5.80;;;1.38;;
70228;SDS011;57617;51.988;5.854;2023-05-16T01:41:59;11.23;;;1.55;;
70228;SDS011;57617;51.988;5.854;2023-05-16T01:47:07;12.55;;;1.60;;
70228;SDS011;57617;51.988;5.854;2023-05-16T01:49:38;9.80;;;1.42;;
70228;SDS011;57617;51.988;5.854;2023-05-16T01:52:12;12.93;;;1.77;;
70228;SDS011;57617;51.988;5.854;2023-05-16T01:54:43;6.85;;;1.70;;
70228;SDS011;57617;51.988;5.854;2023-05-16T01:57:09;11.55;;;1.73;;
70228;SDS011;57617;51.988;5.854;2023-05-16T01:59:37;10.20;;;1.50;;
70228;SDS011;57617;51.988;5.854;2023-05-16T02:02:04;9.55;;;1.88;;
70228;SDS011;57617;51.988;5.854;2023-05-16T02:04:29;13.55;;;1.70;;
70228;SDS011;57617;51.988;5.854;2023-05-16T02:06:55;8.80;;;1.90;;
70228;SDS011;57617;51.988;5.854;2023-05-16T02:09:21;9.45;;;1.50;;
70228;SDS011;57617;51.988;5.854;2023-05-16T02:11:46;11.30;;;1.70;;
70228;SDS011;57617;51.988;5.854;2023-05-16T02:14:11;12.75;;;2.65;;
70228;SDS011;57617;51.988;5.854;2023-05-16T02:16:37;11.90;;;1.90;;
70228;SDS011;57617;51.988;5.854;2023-05-16T02:19:02;11.88;;;1.88;;
70228;SDS011;57617;51.988;5.854;2023-05-16T02:21:28;12.35;;;1.67;;
70228;SDS011;57617;51.988;5.854;2023-05-16T02:23:53;9.40;;;1.70;;
70228;SDS011;57617;51.988;5.854;2023-05-16T02:26:18;14.38;;;1.55;;
70228;SDS011;57617;51.988;5.854;2023-05-16T02:28:44;18.10;;;1.92;;
70228;SDS011;57617;51.988;5.854;2023-05-16T02:31:10;10.13;;;1.92;;
70228;SDS011;57617;51.988;5.854;2023-05-16T02:33:35;13.50;;;1.83;;
70228;SDS011;57617;51.988;5.854;2023-05-16T02:36:00;7.60;;;1.60;;
70228;SDS011;57617;51.988;5.854;2023-05-16T02:38:26;7.78;;;1.63;;
70228;SDS011;57617;51.988;5.854;2023-05-16T02:40:51;7.05;;;1.90;;
70228;SDS011;57617;51.988;5.854;2023-05-16T02:43:16;5.75;;;1.23;;
70228;SDS011;57617;51.988;5.854;2023-05-16T02:45:41;8.57;;;1.85;;
70228;SDS011;57617;51.988;5.854;2023-05-16T02:48:07;9.10;;;1.60;;
70228;SDS011;57617;51.988;5.854;2023-05-16T02:50:32;11.23;;;2.03;;
70228;SDS011;57617;51.988;5.854;2023-05-16T02:52:58;8.93;;;2.00;;
70228;SDS011;57617;51.988;5.854;2023-05-16T02:55:26;8.10;;;1.60;;
70228;SDS011;57617;51.988;5.854;2023-05-16T02:57:52;9.40;;;1.60;;
70228;SDS011;57617;51.988;5.854;2023-05-16T03:00:17;8.13;;;1.85;;
70228;SDS011;57617;51.988;5.854;2023-05-16T03:02:43;9.80;;;1.75;;
70228;SDS011;57617;51.988;5.854;2023-05-16T03:05:09;10.27;;;1.83;;
70228;SDS011;57617;51.988;5.854;2023-05-16T03:07:35;12.38;;;2.08;;
70228;SDS011;57617;51.988;5.854;2023-05-16T03:10:01;10.00;;;1.92;;
70228;SDS011;57617;51.988;5.854;2023-05-16T03:12:26;10.35;;;1.65;;
70228;SDS011;57617;51.988;5.854;2023-05-16T03:14:52;11.05;;;1.90;;
70228;SDS011;57617;51.988;5.854;2023-05-16T03:17:17;10.05;;;1.70;;
70228;SDS011;57617;51.988;5.854;2023-05-16T03:19:42;7.65;;;1.73;;
70228;SDS011;57617;51.988;5.854;2023-05-16T03:22:08;11.15;;;1.80;;
70228;SDS011;57617;51.988;5.854;2023-05-16T03:24:33;9.90;;;1.63;;
70228;SDS011;57617;51.988;5.854;2023-05-16T03:26:58;10.93;;;1.58;;
70228;SDS011;57617;51.988;5.854;2023-05-16T03:29:24;9.30;;;1.70;;
70228;SDS011;57617;51.988;5.854;2023-05-16T03:31:50;13.73;;;2.17;;
70228;SDS011;57617;51.988;5.854;2023-05-16T03:34:16;9.45;;;1.95;;
70228;SDS011;57617;51.988;5.854;2023-05-16T03:36:41;11.38;;;2.47;;
70228;SDS011;57617;51.988;5.854;2023-05-16T03:39:07;5.38;;;1.55;;
70228;SDS011;57617;51.988;5.854;2023-05-16T03:41:32;9.75;;;1.30;;
70228;SDS011;57617;51.988;5.854;2023-05-16T03:43:58;17.20;;;1.95;;
70228;SDS011;57617;51.988;5.854;2023-05-16T03:46:23;12.52;;;1.58;;
70228;SDS011;57617;51.988;5.854;2023-05-16T03:48:49;6.75;;;1.55;;
70228;SDS011;57617;51.988;5.854;2023-05-16T03:51:14;10.85;;;1.55;;
70228;SDS011;57617;51.988;5.854;2023-05-16T03:53:39;10.65;;;2.28;;
70228;SDS011;57617;51.988;5.854;2023-05-16T03:56:05;10.88;;;1.70;;
70228;SDS011;57617;51.988;5.854;2023-05-16T03:58:30;7.03;;;1.30;;
70228;SDS011;57617;51.988;5.854;2023-05-16T04:00:56;12.75;;;2.22;;
70228;SDS011;57617;51.988;5.854;2023-05-16T04:03:21;11.07;;;1.60;;
70228;SDS011;57617;51.988;5.854;2023-05-16T04:05:52;9.13;;;1.98;;
70228;SDS011;57617;51.988;5.854;2023-05-16T04:08:18;10.30;;;1.50;;
70228;SDS011;57617;51.988;5.854;2023-05-16T04:10:43;13.00;;;2.15;;
70228;SDS011;57617;51.988;5.854;2023-05-16T04:13:08;9.48;;;1.80;;
70228;SDS011;57617;51.988;5.854;2023-05-16T04:15:33;12.15;;;1.55;;
70228;SDS011;57617;51.988;5.854;2023-05-16T04:17:59;8.43;;;1.88;;
70228;SDS011;57617;51.988;5.854;2023-05-16T04:20:24;8.80;;;1.70;;
70228;SDS011;57617;51.988;5.854;2023-05-16T04:22:49;10.38;;;1.88;;
70228;SDS011;57617;51.988;5.854;2023-05-16T04:25:15;12.88;;;1.80;;
70228;SDS011;57617;51.988;5.854;2023-05-16T04:27:41;10.60;;;1.73;;
70228;SDS011;57617;51.988;5.854;2023-05-16T04:30:07;14.00;;;2.03;;
70228;SDS011;57617;51.988;5.854;2023-05-16T04:32:33;9.38;;;1.83;;
70228;SDS011;57617;51.988;5.854;2023-05-16T04:34:59;10.15;;;1.73;;
70228;SDS011;57617;51.988;5.854;2023-05-16T04:37:25;6.28;;;1.52;;
70228;SDS011;57617;51.988;5.854;2023-05-16T04:39:50;9.75;;;1.80;;
70228;SDS011;57617;51.988;5.854;2023-05-16T04:42:18;10.55;;;1.92;;
70228;SDS011;57617;51.988;5.854;2023-05-16T04:44:43;11.80;;;1.60;;
70228;SDS011;57617;51.988;5.854;2023-05-16T04:47:08;8.95;;;1.90;;
70228;SDS011;57617;51.988;5.854;2023-05-16T04:49:34;10.48;;;1.55;;
70228;SDS011;57617;51.988;5.854;2023-05-16T04:51:59;11.30;;;2.22;;
70228;SDS011;57617;51.988;5.854;2023-05-16T04:54:24;9.70;;;1.83;;
70228;SDS011;57617;51.988;5.854;2023-05-16T04:56:50;12.27;;;1.92;;
70228;SDS011;57617;51.988;5.854;2023-05-16T04:59:15;10.98;;;1.63;;
70228;SDS011;57617;51.988;5.854;2023-05-16T05:01:40;6.07;;;1.90;;
70228;SDS011;57617;51.988;5.854;2023-05-16T05:04:06;11.35;;;2.03;;
70228;SDS011;57617;51.988;5.854;2023-05-16T05:06:31;11.38;;;1.88;;
70228;SDS011;57617;51.988;5.854;2023-05-16T05:08:56;9.02;;;2.00;;
70228;SDS011;57617;51.988;5.854;2023-05-16T05:11:22;11.65;;;1.92;;
70228;SDS011;57617;51.988;5.854;2023-05-16T05:13:47;10.80;;;2.30;;
70228;SDS011;57617;51.988;5.854;2023-05-16T05:16:12;8.50;;;1.90;;
70228;SDS011;57617;51.988;5.854;2023-05-16T05:18:38;14.02;;;2.10;;
70228;SDS011;57617;51.988;5.854;2023-05-16T05:21:03;16.55;;;2.20;;
70228;SDS011;57617;51.988;5.854;2023-05-16T05:23:28;8.18;;;1.90;;
70228;SDS011;57617;51.988;5.854;2023-05-16T05:25:54;9.52;;;2.03;;
70228;SDS011;57617;51.988;5.854;2023-05-16T05:28:19;9.05;;;2.28;;
70228;SDS011;57617;51.988;5.854;2023-05-16T05:30:44;14.23;;;2.53;;
70228;SDS011;57617;51.988;5.854;2023-05-16T05:33:12;12.27;;;2.33;;
70228;SDS011;57617;51.988;5.854;2023-05-16T05:35:40;14.13;;;2.38;;
70228;SDS011;57617;51.988;5.854;2023-05-16T05:38:06;10.68;;;2.10;;
70228;SDS011;57617;51.988;5.854;2023-05-16T05:40:31;11.65;;;2.10;;
70228;SDS011;57617;51.988;5.854;2023-05-16T05:42:56;9.63;;;2.03;;
70228;SDS011;57617;51.988;5.854;2023-05-16T05:45:21;9.77;;;2.22;;
70228;SDS011;57617;51.988;5.854;2023-05-16T05:47:47;10.05;;;2.22;;
70228;SDS011;57617;51.988;5.854;2023-05-16T05:50:12;13.32;;;2.38;;
70228;SDS011;57617;51.988;5.854;2023-05-16T05:52:38;12.57;;;2.38;;
70228;SDS011;57617;51.988;5.854;2023-05-16T05:55:04;14.25;;;2.45;;
70228;SDS011;57617;51.988;5.854;2023-05-16T05:57:30;10.93;;;2.10;;
70228;SDS011;57617;51.988;5.854;2023-05-16T05:59:55;11.52;;;2.45;;
70228;SDS011;57617;51.988;5.854;2023-05-16T06:02:20;8.77;;;2.28;;
70228;SDS011;57617;51.988;5.854;2023-05-16T06:04:46;13.32;;;2.38;;
70228;SDS011;57617;51.988;5.854;2023-05-16T06:07:11;13.65;;;2.30;;
70228;SDS011;57617;51.988;5.854;2023-05-16T06:09:37;9.05;;;2.33;;
70228;SDS011;57617;51.988;5.854;2023-05-16T06:12:02;12.77;;;2.38;;
70228;SDS011;57617;51.988;5.854;2023-05-16T06:14:28;10.90;;;2.10;;
70228;SDS011;57617;51.988;5.854;2023-05-16T06:16:53;9.73;;;1.92;;
70228;SDS011;57617;51.988;5.854;2023-05-16T06:19:18;6.22;;;1.80;;
70228;SDS011;57617;51.988;5.854;2023-05-16T06:21:44;11.65;;;1.95;;
70228;SDS011;57617;51.988;5.854;2023-05-16T06:24:09;17.02;;;2.38;;
70228;SDS011;57617;51.988;5.854;2023-05-16T06:26:36;12.10;;;2.15;;
70228;SDS011;57617;51.988;5.854;2023-05-16T06:29:01;17.17;;;2.25;;
70228;SDS011;57617;51.988;5.854;2023-05-16T06:31:26;11.52;;;2.22;;
70228;SDS011;57617;51.988;5.854;2023-05-16T06:33:52;14.88;;;2.22;;
70228;SDS011;57617;51.988;5.854;2023-05-16T06:36:17;8.82;;;1.70;;
70228;SDS011;57617;51.988;5.854;2023-05-16T06:38:42;10.88;;;2.13;;
70228;SDS011;57617;51.988;5.854;2023-05-16T06:41:08;12.95;;;2.30;;
70228;SDS011;57617;51.988;5.854;2023-05-16T06:43:33;11.45;;;2.00;;
70228;SDS011;57617;51.988;5.854;2023-05-16T06:45:58;17.42;;;1.92;;
70228;SDS011;57617;51.988;5.854;2023-05-16T06:48:23;7.65;;;1.70;;
70228;SDS011;57617;51.988;5.854;2023-05-16T06:50:49;9.40;;;2.00;;
70228;SDS011;57617;51.988;5.854;2023-05-16T06:53:17;10.85;;;1.98;;
70228;SDS011;57617;51.988;5.854;2023-05-16T06:55:43;11.35;;;1.67;;
70228;SDS011;57617;51.988;5.854;2023-05-16T06:58:08;10.45;;;1.80;;
70228;SDS011;57617;51.988;5.854;2023-05-16T07:00:34;10.10;;;1.75;;
70228;SDS011;57617;51.988;5.854;2023-05-16T07:02:59;7.03;;;1.50;;
70228;SDS011;57617;51.988;5.854;2023-05-16T07:05:24;7.38;;;1.13;;
70228;SDS011;57617;51.988;5.854;2023-05-16T07:07:50;7.80;;;1.40;;
70228;SDS011;57617;51.988;5.854;2023-05-16T07:10:15;8.63;;;1.00;;
70228;SDS011;57617;51.988;5.854;2023-05-16T07:12:41;6.43;;;0.90;;
70228;SDS011;57617;51.988;5.854;2023-05-16T07:15:07;8.85;;;1.45;;
70228;SDS011;57617;51.988;5.854;2023-05-16T07:17:32;4.95;;;1.30;;
70228;SDS011;57617;51.988;5.854;2023-05-16T07:19:58;5.10;;;0.88;;
70228;SDS011;57617;51.988;5.854;2023-05-16T07:22:23;7.30;;;1.27;;
70228;SDS011;57617;51.988;5.854;2023-05-16T07:24:49;6.68;;;1.10;;
70228;SDS011;57617;51.988;5.854;2023-05-16T07:27:14;7.35;;;1.30;;
70228;SDS011;57617;51.988;5.854;2023-05-16T07:29:40;7.82;;;0.90;;
70228;SDS011;57617;51.988;5.854;2023-05-16T07:32:05;5.70;;;0.95;;
70228;SDS011;57617;51.988;5.854;2023-05-16T07:34:31;7.55;;;0.90;;
70228;SDS011;57617;51.988;5.854;2023-05-16T07:36:56;3.92;;;0.80;;
70228;SDS011;57617;51.988;5.854;2023-05-16T07:39:21;4.30;;;0.82;;
70228;SDS011;57617;51.988;5.854;2023-05-16T07:41:47;8.23;;;0.90;;
70228;SDS011;57617;51.988;5.854;2023-05-16T07:44:12;4.25;;;0.95;;
70228;SDS011;57617;51.988;5.854;2023-05-16T07:46:37;6.18;;;0.90;;
70228;SDS011;57617;51.988;5.854;2023-05-16T07:49:02;3.78;;;1.00;;
70228;SDS011;57617;51.988;5.854;2023-05-16T07:51:28;4.15;;;0.98;;
70228;SDS011;57617;51.988;5.854;2023-05-16T07:53:53;4.68;;;1.25;;
70228;SDS011;57617;51.988;5.854;2023-05-16T07:56:18;8.63;;;0.90;;
70228;SDS011;57617;51.988;5.854;2023-05-16T07:58:44;3.65;;;0.73;;
70228;SDS011;57617;51.988;5.854;2023-05-16T08:01:09;6.65;;;1.02;;
70228;SDS011;57617;51.988;5.854;2023-05-16T08:03:35;7.55;;;0.80;;
70228;SDS011;57617;51.988;5.854;2023-05-16T08:06:01;5.15;;;0.93;;
70228;SDS011;57617;51.988;5.854;2023-05-16T08:08:26;8.43;;;0.90;;
70228;SDS011;57617;51.988;5.854;2023-05-16T08:10:51;8.00;;;0.80;;
70228;SDS011;57617;51.988;5.854;2023-05-16T08:13:17;6.57;;;0.90;;
70228;SDS011;57617;51.988;5.854;2023-05-16T08:15:42;6.05;;;0.88;;
70228;SDS011;57617;51.988;5.854;2023-05-16T08:18:11;8.63;;;1.00;;
70228;SDS011;57617;51.988;5.854;2023-05-16T08:20:38;3.08;;;0.60;;
70228;SDS011;57617;51.988;5.854;2023-05-16T08:23:05;4.78;;;0.82;;
70228;SDS011;57617;51.988;5.854;2023-05-16T08:25:31;5.93;;;0.98;;
70228;SDS011;57617;51.988;5.854;2023-05-16T08:27:56;6.55;;;0.90;;
70228;SDS011;57617;51.988;5.854;2023-05-16T08:30:21;5.97;;;0.98;;
70228;SDS011;57617;51.988;5.854;2023-05-16T08:32:47;8.80;;;1.10;;
70228;SDS011;57617;51.988;5.854;2023-05-16T08:35:12;6.45;;;1.15;;
70228;SDS011;57617;51.988;5.854;2023-05-16T08:37:37;7.97;;;1.00;;
70228;SDS011;57617;51.988;5.854;2023-05-16T08:40:03;5.85;;;0.80;;
70228;SDS011;57617;51.988;5.854;2023-05-16T08:42:32;6.15;;;0.80;;
70228;SDS011;57617;51.988;5.854;2023-05-16T08:44:58;3.40;;;0.65;;
70228;SDS011;57617;51.988;5.854;2023-05-16T08:47:23;2.53;;;0.73;;
70228;SDS011;57617;51.988;5.854;2023-05-16T08:49:51;3.15;;;0.60;;
70228;SDS011;57617;51.988;5.854;2023-05-16T08:52:20;3.90;;;0.70;;
70228;SDS011;57617;51.988;5.854;2023-05-16T08:54:49;3.17;;;0.40;;
70228;SDS011;57617;51.988;5.854;2023-05-16T08:57:15;5.20;;;0.70;;
70228;SDS011;57617;51.988;5.854;2023-05-16T08:59:41;4.05;;;0.70;;
70228;SDS011;57617;51.988;5.854;2023-05-16T09:02:07;4.70;;;0.88;;
70228;SDS011;57617;51.988;5.854;2023-05-16T09:04:33;2.72;;;0.60;;
70228;SDS011;57617;51.988;5.854;2023-05-16T09:06:59;4.97;;;0.60;;
70228;SDS011;57617;51.988;5.854;2023-05-16T09:09:25;5.65;;;0.75;;
70228;SDS011;57617;51.988;5.854;2023-05-16T09:11:50;5.20;;;0.77;;
70228;SDS011;57617;51.988;5.854;2023-05-16T09:14:15;5.38;;;0.90;;
70228;SDS011;57617;51.988;5.854;2023-05-16T09:16:41;4.45;;;0.95;;
70228;SDS011;57617;51.988;5.854;2023-05-16T09:19:07;4.95;;;0.82;;
70228;SDS011;57617;51.988;5.854;2023-05-16T09:21:37;4.60;;;0.85;;
70228;SDS011;57617;51.988;5.854;2023-05-16T09:24:04;8.05;;;1.00;;
70228;SDS011;57617;51.988;5.854;2023-05-16T09:26:34;3.25;;;0.80;;
70228;SDS011;57617;51.988;5.854;2023-05-16T09:29:01;3.20;;;0.80;;
70228;SDS011;57617;51.988;5.854;2023-05-16T09:31:27;3.92;;;0.98;;
70228;SDS011;57617;51.988;5.854;2023-05-16T09:34:01;3.85;;;0.70;;
70228;SDS011;57617;51.988;5.854;2023-05-16T09:36:30;3.25;;;0.98;;
70228;SDS011;57617;51.988;5.854;2023-05-16T09:38:56;2.85;;;0.90;;
70228;SDS011;57617;51.988;5.854;2023-05-16T09:41:21;4.43;;;0.90;;
70228;SDS011;57617;51.988;5.854;2023-05-16T09:43:47;4.05;;;1.13;;
70228;SDS011;57617;51.988;5.854;2023-05-16T09:46:15;5.78;;;0.90;;
70228;SDS011;57617;51.988;5.854;2023-05-16T09:48:44;2.38;;;0.75;;
70228;SDS011;57617;51.988;5.854;2023-05-16T09:51:11;6.78;;;0.70;;
70228;SDS011;57617;51.988;5.854;2023-05-16T09:53:37;4.22;;;0.90;;
70228;SDS011;57617;51.988;5.854;2023-05-16T09:56:04;6.20;;;1.05;;
70228;SDS011;57617;51.988;5.854;2023-05-16T09:58:37;4.82;;;0.85;;
70228;SDS011;57617;51.988;5.854;2023-05-16T10:01:03;2.50;;;0.65;;
70228;SDS011;57617;51.988;5.854;2023-05-16T10:03:29;3.20;;;0.60;;
70228;SDS011;57617;51.988;5.854;2023-05-16T10:05:55;8.20;;;0.88;;
70228;SDS011;57617;51.988;5.854;2023-05-16T10:08:21;8.27;;;1.10;;
70228;SDS011;57617;51.988;5.854;2023-05-16T10:10:51;5.25;;;2.05;;
70228;SDS011;57617;51.988;5.854;2023-05-16T10:13:19;5.18;;;0.85;;
70228;SDS011;57617;51.988;5.854;2023-05-16T10:15:46;3.35;;;0.80;;
70228;SDS011;57617;51.988;5.854;2023-05-16T10:18:13;6.85;;;1.08;;
70228;SDS011;57617;51.988;5.854;2023-05-16T10:20:42;2.47;;;0.70;;
70228;SDS011;57617;51.988;5.854;2023-05-16T10:23:10;7.00;;;1.00;;
70228;SDS011;57617;51.988;5.854;2023-05-16T10:25:40;4.43;;;0.80;;
70228;SDS011;57617;51.988;5.854;2023-05-16T10:28:07;4.38;;;0.70;;
70228;SDS011;57617;51.988;5.854;2023-05-16T10:30:33;4.00;;;0.95;;
70228;SDS011;57617;51.988;5.854;2023-05-16T10:33:00;6.18;;;0.93;;
70228;SDS011;57617;51.988;5.854;2023-05-16T10:35:26;4.00;;;0.73;;
70228;SDS011;57617;51.988;5.854;2023-05-16T10:37:52;3.17;;;1.00;;
70228;SDS011;57617;51.988;5.854;2023-05-16T10:40:17;8.57;;;0.85;;
70228;SDS011;57617;51.988;5.854;2023-05-16T10:43:00;5.22;;;0.80;;
70228;SDS011;57617;51.988;5.854;2023-05-16T10:45:27;3.33;;;0.90;;
70228;SDS011;57617;51.988;5.854;2023-05-16T10:47:56;4.75;;;0.77;;
70228;SDS011;57617;51.988;5.854;2023-05-16T10:50:36;2.80;;;0.50;;
70228;SDS011;57617;51.988;5.854;2023-05-16T10:53:16;4.70;;;0.88;;
70228;SDS011;57617;51.988;5.854;2023-05-16T10:58:24;3.80;;;0.88;;
70228;SDS011;57617;51.988;5.854;2023-05-16T11:06:29;6.78;;;1.00;;
70228;SDS011;57617;51.988;5.854;2023-05-16T11:14:20;3.35;;;0.77;;
70228;SDS011;57617;51.988;5.854;2023-05-16T11:16:47;6.70;;;1.02;;
70228;SDS011;57617;51.988;5.854;2023-05-16T11:19:34;4.32;;;0.77;;
70228;SDS011;57617;51.988;5.854;2023-05-16T11:22:05;5.82;;;1.13;;
70228;SDS011;57617;51.988;5.854;2023-05-16T11:24:35;6.68;;;1.10;;
70228;SDS011;57617;51.988;5.854;2023-05-16T11:27:03;5.90;;;0.80;;
70228;SDS011;57617;51.988;5.854;2023-05-16T11:29:32;4.82;;;1.00;;
70228;SDS011;57617;51.988;5.854;2023-05-16T11:31:59;4.72;;;0.93;;
70228;SDS011;57617;51.988;5.854;2023-05-16T11:34:26;7.35;;;0.80;;
70228;SDS011;57617;51.988;5.854;2023-05-16T11:36:51;6.28;;;0.80;;
70228;SDS011;57617;51.988;5.854;2023-05-16T11:39:17;3.65;;;1.00;;
70228;SDS011;57617;51.988;5.854;2023-05-16T11:41:43;4.43;;;0.88;;
70228;SDS011;57617;51.988;5.854;2023-05-16T11:44:12;4.78;;;0.93;;
70228;SDS011;57617;51.988;5.854;2023-05-16T11:46:38;6.13;;;0.90;;
70228;SDS011;57617;51.988;5.854;2023-05-16T11:49:05;3.75;;;0.65;;
70228;SDS011;57617;51.988;5.854;2023-05-16T11:51:31;3.33;;;0.75;;
70228;SDS011;57617;51.988;5.854;2023-05-16T11:53:58;4.97;;;0.90;;
70228;SDS011;57617;51.988;5.854;2023-05-16T11:56:24;7.13;;;0.93;;
70228;SDS011;57617;51.988;5.854;2023-05-16T11:58:50;5.70;;;1.17;;
70228;SDS011;57617;51.988;5.854;2023-05-16T12:01:15;3.97;;;0.90;;
70228;SDS011;57617;51.988;5.854;2023-05-16T12:03:41;4.43;;;0.80;;
70228;SDS011;57617;51.988;5.854;2023-05-16T12:06:06;2.67;;;0.90;;
70228;SDS011;57617;51.988;5.854;2023-05-16T12:08:32;6.68;;;1.48;;
70228;SDS011;57617;51.988;5.854;2023-05-16T12:10:58;6.13;;;1.13;;
70228;SDS011;57617;51.988;5.854;2023-05-16T12:13:24;7.05;;;0.95;;
70228;SDS011;57617;51.988;5.854;2023-05-16T12:15:50;4.07;;;0.98;;
70228;SDS011;57617;51.988;5.854;2023-05-16T12:18:16;3.72;;;1.00;;
70228;SDS011;57617;51.988;5.854;2023-05-16T12:20:42;4.47;;;1.02;;
70228;SDS011;57617;51.988;5.854;2023-05-16T12:23:12;5.18;;;1.15;;
70228;SDS011;57617;51.988;5.854;2023-05-16T12:25:43;5.10;;;1.08;;
70228;SDS011;57617;51.988;5.854;2023-05-16T12:28:13;6.82;;;1.08;;
70228;SDS011;57617;51.988;5.854;2023-05-16T12:30:40;7.78;;;1.00;;
70228;SDS011;57617;51.988;5.854;2023-05-16T12:33:12;3.22;;;0.80;;
70228;SDS011;57617;51.988;5.854;2023-05-16T12:35:45;6.53;;;1.20;;
70228;SDS011;57617;51.988;5.854;2023-05-16T12:38:12;4.00;;;1.00;;
70228;SDS011;57617;51.988;5.854;2023-05-16T12:40:40;6.20;;;1.08;;
70228;SDS011;57617;51.988;5.854;2023-05-16T12:43:19;8.50;;;1.00;;
70228;SDS011;57617;51.988;5.854;2023-05-16T12:45:49;3.30;;;0.90;;
70228;SDS011;57617;51.988;5.854;2023-05-16T12:48:16;5.63;;;1.02;;
70228;SDS011;57617;51.988;5.854;2023-05-16T12:50:42;5.82;;;0.85;;
70228;SDS011;57617;51.988;5.854;2023-05-16T12:53:11;7.78;;;0.75;;
70228;SDS011;57617;51.988;5.854;2023-05-16T12:55:37;7.30;;;0.88;;
70228;SDS011;57617;51.988;5.854;2023-05-16T12:58:03;3.63;;;0.90;;
70228;SDS011;57617;51.988;5.854;2023-05-16T13:00:29;5.72;;;0.80;;
70228;SDS011;57617;51.988;5.854;2023-05-16T13:02:56;3.92;;;0.75;;
70228;SDS011;57617;51.988;5.854;2023-05-16T13:05:21;4.47;;;0.90;;
70228;SDS011;57617;51.988;5.854;2023-05-16T13:07:47;8.35;;;1.10;;
70228;SDS011;57617;51.988;5.854;2023-05-16T13:10:15;4.32;;;0.90;;
70228;SDS011;57617;51.988;5.854;2023-05-16T13:12:42;7.00;;;0.65;;
70228;SDS011;57617;51.988;5.854;2023-05-16T13:15:07;6.95;;;0.80;;
70228;SDS011;57617;51.988;5.854;2023-05-16T13:17:34;3.22;;;0.80;;
70228;SDS011;57617;51.988;5.854;2023-05-16T13:20:00;2.35;;;0.70;;
70228;SDS011;57617;51.988;5.854;2023-05-16T13:22:29;2.83;;;0.70;;
70228;SDS011;57617;51.988;5.854;2023-05-16T13:24:54;4.10;;;0.90;;
70228;SDS011;57617;51.988;5.854;2023-05-16T13:27:19;2.67;;;0.80;;
70228;SDS011;57617;51.988;5.854;2023-05-16T13:29:44;3.72;;;0.90;;
70228;SDS011;57617;51.988;5.854;2023-05-16T13:32:10;4.65;;;1.13;;
70228;SDS011;57617;51.988;5.854;2023-05-16T13:34:35;5.55;;;0.90;;
70228;SDS011;57617;51.988;5.854;2023-05-16T13:37:00;5.05;;;0.85;;
70228;SDS011;57617;51.988;5.854;2023-05-16T13:39:26;5.28;;;1.13;;
70228;SDS011;57617;51.988;5.854;2023-05-16T13:41:51;4.75;;;0.93;;
70228;SDS011;57617;51.988;5.854;2023-05-16T13:44:17;4.80;;;1.00;;
70228;SDS011;57617;51.988;5.854;2023-05-16T13:46:42;4.75;;;0.95;;
70228;SDS011;57617;51.988;5.854;2023-05-16T13:49:08;4.28;;;1.00;;
70228;SDS011;57617;51.988;5.854;2023-05-16T13:51:34;5.18;;;1.20;;
70228;SDS011;57617;51.988;5.854;2023-05-16T13:53:59;8.98;;;1.30;;
70228;SDS011;57617;51.988;5.854;2023-05-16T13:56:24;5.10;;;1.10;;
70228;SDS011;57617;51.988;5.854;2023-05-16T13:58:50;5.38;;;1.35;;
70228;SDS011;57617;51.988;5.854;2023-05-16T14:01:15;3.47;;;1.00;;
70228;SDS011;57617;51.988;5.854;2023-05-16T14:03:41;4.40;;;0.90;;
70228;SDS011;57617;51.988;5.854;2023-05-16T14:06:06;3.28;;;1.10;;
70228;SDS011;57617;51.988;5.854;2023-05-16T14:08:32;5.60;;;1.10;;
70228;SDS011;57617;51.988;5.854;2023-05-16T14:10:57;5.03;;;1.00;;
70228;SDS011;57617;51.988;5.854;2023-05-16T14:13:22;4.88;;;1.13;;
70228;SDS011;57617;51.988;5.854;2023-05-16T14:15:47;4.70;;;1.10;;
70228;SDS011;57617;51.988;5.854;2023-05-16T14:18:13;6.03;;;1.20;;
70228;SDS011;57617;51.988;5.854;2023-05-16T14:20:38;18.85;;;1.80;;
70228;SDS011;57617;51.988;5.854;2023-05-16T14:23:03;5.15;;;1.02;;
70228;SDS011;57617;51.988;5.854;2023-05-16T14:25:29;5.43;;;1.00;;
70228;SDS011;57617;51.988;5.854;2023-05-16T14:27:54;5.53;;;1.00;;
70228;SDS011;57617;51.988;5.854;2023-05-16T14:30:20;5.50;;;1.15;;
70228;SDS011;57617;51.988;5.854;2023-05-16T14:32:45;8.02;;;1.17;;
70228;SDS011;57617;51.988;5.854;2023-05-16T14:35:10;5.20;;;0.98;;
70228;SDS011;57617;51.988;5.854;2023-05-16T14:37:36;7.68;;;0.90;;
70228;SDS011;57617;51.988;5.854;2023-05-16T14:40:01;7.22;;;1.00;;
70228;SDS011;57617;51.988;5.854;2023-05-16T14:42:28;6.05;;;1.38;;
70228;SDS011;57617;51.988;5.854;2023-05-16T14:44:55;5.28;;;1.00;;
70228;SDS011;57617;51.988;5.854;2023-05-16T14:47:20;4.70;;;1.50;;
70228;SDS011;57617;51.988;5.854;2023-05-16T14:49:46;5.65;;;1.20;;
70228;SDS011;57617;51.988;5.854;2023-05-16T14:52:11;5.35;;;1.20;;
70228;SDS011;57617;51.988;5.854;2023-05-16T14:54:36;7.65;;;1.48;;
70228;SDS011;57617;51.988;5.854;2023-05-16T14:57:02;4.00;;;1.10;;
70228;SDS011;57617;51.988;5.854;2023-05-16T14:59:28;4.40;;;1.00;;